sensor_id;sensor_type;location;lat;lon;timestamp;P1;durP1;ratioP1;P2;durP2;ratioP2
64982;SDS011;62161;54.688;25.256;2022-09-16T00:00:17;4.22;;;2.10;;
64982;SDS011;62161;54.688;25.256;2022-09-16T00:02:42;4.53;;;2.20;;
64982;SDS011;62161;54.688;25.256;2022-09-16T00:05:07;5.90;;;2.42;;
64982;SDS011;62161;54.688;25.256;2022-09-16T00:07:33;4.85;;;1.95;;
64982;SDS011;62161;54.688;25.256;2022-09-16T00:09:59;7.13;;;2.25;;
64982;SDS011;62161;54.688;25.256;2022-09-16T00:12:25;4.88;;;1.90;;
64982;SDS011;62161;54.688;25.256;2022-09-16T00:14:51;5.05;;;2.10;;
64982;SDS011;62161;54.688;25.256;2022-09-16T00:17:17;5.03;;;2.00;;
64982;SDS011;62161;54.688;25.256;2022-09-16T00:19:43;3.55;;;1.95;;
64982;SDS011;62161;54.688;25.256;2022-09-16T00:22:08;5.28;;;2.13;;
64982;SDS011;62161;54.688;25.256;2022-09-16T00:24:34;3.40;;;2.00;;
64982;SDS011;62161;54.688;25.256;2022-09-16T00:26:59;3.67;;;1.95;;
64982;SDS011;62161;54.688;25.256;2022-09-16T00:29:24;3.25;;;2.05;;
64982;SDS011;62161;54.688;25.256;2022-09-16T00:31:50;3.95;;;2.05;;
64982;SDS011;62161;54.688;25.256;2022-09-16T00:34:15;3.05;;;1.98;;
64982;SDS011;62161;54.688;25.256;2022-09-16T00:36:41;4.18;;;2.10;;
64982;SDS011;62161;54.688;25.256;2022-09-16T00:39:06;5.07;;;2.20;;
64982;SDS011;62161;54.688;25.256;2022-09-16T00:41:31;6.80;;;1.95;;
64982;SDS011;62161;54.688;25.256;2022-09-16T00:49:00;2.90;;;1.73;;
64982;SDS011;62161;54.688;25.256;2022-09-16T00:51:29;4.60;;;1.80;;
64982;SDS011;62161;54.688;25.256;2022-09-16T00:53:56;2.92;;;1.85;;
64982;SDS011;62161;54.688;25.256;2022-09-16T00:56:27;4.43;;;1.77;;
64982;SDS011;62161;54.688;25.256;2022-09-16T00:59:05;3.72;;;1.88;;
64982;SDS011;62161;54.688;25.256;2022-09-16T01:01:34;5.20;;;2.00;;
64982;SDS011;62161;54.688;25.256;2022-09-16T01:04:03;4.28;;;1.90;;
64982;SDS011;62161;54.688;25.256;2022-09-16T01:06:33;4.03;;;1.80;;
64982;SDS011;62161;54.688;25.256;2022-09-16T01:09:02;5.93;;;1.90;;
64982;SDS011;62161;54.688;25.256;2022-09-16T01:11:28;6.72;;;1.75;;
64982;SDS011;62161;54.688;25.256;2022-09-16T01:13:53;2.83;;;1.70;;
64982;SDS011;62161;54.688;25.256;2022-09-16T01:16:39;3.60;;;1.70;;
64982;SDS011;62161;54.688;25.256;2022-09-16T01:30:05;3.42;;;2.10;;
64982;SDS011;62161;54.688;25.256;2022-09-16T01:35:31;7.63;;;2.22;;
64982;SDS011;62161;54.688;25.256;2022-09-16T01:46:26;2.47;;;1.85;;
64982;SDS011;62161;54.688;25.256;2022-09-16T01:52:05;3.17;;;1.98;;
64982;SDS011;62161;54.688;25.256;2022-09-16T01:54:42;3.80;;;2.00;;
64982;SDS011;62161;54.688;25.256;2022-09-16T01:57:24;6.10;;;2.35;;
64982;SDS011;62161;54.688;25.256;2022-09-16T02:00:09;4.68;;;2.20;;
64982;SDS011;62161;54.688;25.256;2022-09-16T02:02:43;5.82;;;2.03;;
64982;SDS011;62161;54.688;25.256;2022-09-16T02:05:14;5.10;;;1.95;;
64982;SDS011;62161;54.688;25.256;2022-09-16T02:07:51;4.03;;;1.98;;
64982;SDS011;62161;54.688;25.256;2022-09-16T02:10:25;10.07;;;2.10;;
64982;SDS011;62161;54.688;25.256;2022-09-16T02:12:57;4.93;;;1.80;;
64982;SDS011;62161;54.688;25.256;2022-09-16T02:15:26;8.30;;;1.90;;
64982;SDS011;62161;54.688;25.256;2022-09-16T02:17:59;3.45;;;2.00;;
64982;SDS011;62161;54.688;25.256;2022-09-16T02:20:28;4.28;;;1.95;;
64982;SDS011;62161;54.688;25.256;2022-09-16T02:23:00;3.30;;;1.90;;
64982;SDS011;62161;54.688;25.256;2022-09-16T02:25:30;5.13;;;1.83;;
64982;SDS011;62161;54.688;25.256;2022-09-16T02:27:59;4.43;;;1.95;;
64982;SDS011;62161;54.688;25.256;2022-09-16T02:30:26;7.88;;;2.03;;
64982;SDS011;62161;54.688;25.256;2022-09-16T02:32:54;4.50;;;2.10;;
64982;SDS011;62161;54.688;25.256;2022-09-16T02:35:23;5.47;;;2.00;;
64982;SDS011;62161;54.688;25.256;2022-09-16T02:38:13;5.40;;;2.20;;
64982;SDS011;62161;54.688;25.256;2022-09-16T02:40:58;4.43;;;1.95;;
64982;SDS011;62161;54.688;25.256;2022-09-16T02:43:25;6.90;;;2.30;;
64982;SDS011;62161;54.688;25.256;2022-09-16T02:53:45;3.60;;;2.30;;
64982;SDS011;62161;54.688;25.256;2022-09-16T02:56:21;4.43;;;1.63;;
64982;SDS011;62161;54.688;25.256;2022-09-16T02:58:47;3.53;;;1.92;;
64982;SDS011;62161;54.688;25.256;2022-09-16T03:01:13;3.67;;;1.90;;
64982;SDS011;62161;54.688;25.256;2022-09-16T03:03:38;4.78;;;2.00;;
64982;SDS011;62161;54.688;25.256;2022-09-16T03:08:30;5.90;;;1.92;;
64982;SDS011;62161;54.688;25.256;2022-09-16T03:10:57;7.25;;;1.85;;
64982;SDS011;62161;54.688;25.256;2022-09-16T03:13:31;5.55;;;2.10;;
64982;SDS011;62161;54.688;25.256;2022-09-16T03:19:11;4.82;;;2.08;;
64982;SDS011;62161;54.688;25.256;2022-09-16T03:22:06;3.70;;;2.03;;
64982;SDS011;62161;54.688;25.256;2022-09-16T03:27:36;3.40;;;1.77;;
64982;SDS011;62161;54.688;25.256;2022-09-16T03:30:25;4.35;;;1.90;;
64982;SDS011;62161;54.688;25.256;2022-09-16T03:32:58;3.55;;;1.85;;
64982;SDS011;62161;54.688;25.256;2022-09-16T03:35:30;5.57;;;2.00;;
64982;SDS011;62161;54.688;25.256;2022-09-16T03:37:57;3.90;;;1.75;;
64982;SDS011;62161;54.688;25.256;2022-09-16T03:40:24;4.32;;;2.00;;
64982;SDS011;62161;54.688;25.256;2022-09-16T03:42:53;5.22;;;2.00;;
64982;SDS011;62161;54.688;25.256;2022-09-16T03:45:20;5.05;;;2.22;;
64982;SDS011;62161;54.688;25.256;2022-09-16T03:47:46;6.88;;;2.05;;
64982;SDS011;62161;54.688;25.256;2022-09-16T03:50:14;5.28;;;2.10;;
64982;SDS011;62161;54.688;25.256;2022-09-16T03:52:40;7.07;;;1.95;;
64982;SDS011;62161;54.688;25.256;2022-09-16T03:55:05;7.82;;;2.10;;
64982;SDS011;62161;54.688;25.256;2022-09-16T03:57:32;5.97;;;2.00;;
64982;SDS011;62161;54.688;25.256;2022-09-16T03:59:58;7.35;;;1.90;;
64982;SDS011;62161;54.688;25.256;2022-09-16T04:02:23;3.17;;;1.70;;
64982;SDS011;62161;54.688;25.256;2022-09-16T04:04:48;5.00;;;1.50;;
64982;SDS011;62161;54.688;25.256;2022-09-16T04:07:14;4.38;;;1.60;;
64982;SDS011;62161;54.688;25.256;2022-09-16T04:09:39;3.83;;;2.08;;
64982;SDS011;62161;54.688;25.256;2022-09-16T04:12:06;4.10;;;1.60;;
64982;SDS011;62161;54.688;25.256;2022-09-16T04:14:32;5.78;;;1.70;;
64982;SDS011;62161;54.688;25.256;2022-09-16T04:16:58;6.47;;;1.58;;
64982;SDS011;62161;54.688;25.256;2022-09-16T04:19:24;3.13;;;1.77;;
64982;SDS011;62161;54.688;25.256;2022-09-16T04:21:49;4.30;;;1.77;;
64982;SDS011;62161;54.688;25.256;2022-09-16T04:24:14;3.72;;;1.65;;
64982;SDS011;62161;54.688;25.256;2022-09-16T04:26:40;3.50;;;1.50;;
64982;SDS011;62161;54.688;25.256;2022-09-16T04:29:06;4.45;;;1.65;;
64982;SDS011;62161;54.688;25.256;2022-09-16T04:31:31;4.82;;;1.60;;
64982;SDS011;62161;54.688;25.256;2022-09-16T04:33:57;3.22;;;1.60;;
64982;SDS011;62161;54.688;25.256;2022-09-16T04:36:24;3.15;;;1.80;;
64982;SDS011;62161;54.688;25.256;2022-09-16T04:38:50;6.30;;;1.70;;
64982;SDS011;62161;54.688;25.256;2022-09-16T04:41:17;4.07;;;1.60;;
64982;SDS011;62161;54.688;25.256;2022-09-16T04:43:44;5.55;;;1.80;;
64982;SDS011;62161;54.688;25.256;2022-09-16T04:46:10;7.68;;;1.80;;
64982;SDS011;62161;54.688;25.256;2022-09-16T04:48:36;6.22;;;1.73;;
64982;SDS011;62161;54.688;25.256;2022-09-16T04:51:05;3.42;;;1.55;;
64982;SDS011;62161;54.688;25.256;2022-09-16T04:53:32;6.05;;;2.40;;
64982;SDS011;62161;54.688;25.256;2022-09-16T04:56:18;4.15;;;1.95;;
64982;SDS011;62161;54.688;25.256;2022-09-16T04:58:46;5.85;;;1.60;;
64982;SDS011;62161;54.688;25.256;2022-09-16T05:01:17;10.60;;;1.65;;
64982;SDS011;62161;54.688;25.256;2022-09-16T05:03:45;4.20;;;1.65;;
64982;SDS011;62161;54.688;25.256;2022-09-16T05:06:13;3.55;;;1.70;;
64982;SDS011;62161;54.688;25.256;2022-09-16T05:08:40;3.67;;;1.70;;
64982;SDS011;62161;54.688;25.256;2022-09-16T05:11:07;4.43;;;1.40;;
64982;SDS011;62161;54.688;25.256;2022-09-16T05:13:34;4.55;;;1.83;;
64982;SDS011;62161;54.688;25.256;2022-09-16T05:16:01;4.13;;;1.52;;
64982;SDS011;62161;54.688;25.256;2022-09-16T05:18:30;6.18;;;1.73;;
64982;SDS011;62161;54.688;25.256;2022-09-16T05:20:56;5.03;;;1.50;;
64982;SDS011;62161;54.688;25.256;2022-09-16T05:23:22;5.88;;;1.52;;
64982;SDS011;62161;54.688;25.256;2022-09-16T05:25:48;5.47;;;1.60;;
64982;SDS011;62161;54.688;25.256;2022-09-16T05:28:13;3.53;;;1.50;;
64982;SDS011;62161;54.688;25.256;2022-09-16T05:30:38;5.45;;;1.40;;
64982;SDS011;62161;54.688;25.256;2022-09-16T05:33:04;2.80;;;1.45;;
64982;SDS011;62161;54.688;25.256;2022-09-16T05:35:29;3.95;;;1.42;;
64982;SDS011;62161;54.688;25.256;2022-09-16T05:37:55;4.00;;;1.73;;
64982;SDS011;62161;54.688;25.256;2022-09-16T05:40:20;3.28;;;1.70;;
64982;SDS011;62161;54.688;25.256;2022-09-16T05:42:49;3.88;;;1.67;;
64982;SDS011;62161;54.688;25.256;2022-09-16T05:45:15;7.53;;;2.05;;
64982;SDS011;62161;54.688;25.256;2022-09-16T05:47:40;5.30;;;1.80;;
64982;SDS011;62161;54.688;25.256;2022-09-16T05:50:06;5.03;;;1.60;;
64982;SDS011;62161;54.688;25.256;2022-09-16T05:52:31;4.68;;;1.70;;
64982;SDS011;62161;54.688;25.256;2022-09-16T05:54:57;3.85;;;1.73;;
64982;SDS011;62161;54.688;25.256;2022-09-16T05:57:22;4.68;;;1.95;;
64982;SDS011;62161;54.688;25.256;2022-09-16T05:59:47;4.95;;;1.77;;
64982;SDS011;62161;54.688;25.256;2022-09-16T06:02:13;5.90;;;1.70;;
64982;SDS011;62161;54.688;25.256;2022-09-16T06:04:38;4.05;;;1.50;;
64982;SDS011;62161;54.688;25.256;2022-09-16T06:07:04;4.75;;;1.75;;
64982;SDS011;62161;54.688;25.256;2022-09-16T06:09:31;6.65;;;1.80;;
64982;SDS011;62161;54.688;25.256;2022-09-16T06:11:56;4.20;;;1.40;;
64982;SDS011;62161;54.688;25.256;2022-09-16T06:14:22;6.18;;;2.08;;
64982;SDS011;62161;54.688;25.256;2022-09-16T06:16:47;4.30;;;1.60;;
64982;SDS011;62161;54.688;25.256;2022-09-16T06:19:14;7.68;;;1.70;;
64982;SDS011;62161;54.688;25.256;2022-09-16T06:21:41;4.35;;;1.50;;
64982;SDS011;62161;54.688;25.256;2022-09-16T06:24:08;8.45;;;1.70;;
64982;SDS011;62161;54.688;25.256;2022-09-16T06:26:35;7.00;;;1.70;;
64982;SDS011;62161;54.688;25.256;2022-09-16T06:29:02;4.82;;;1.40;;
64982;SDS011;62161;54.688;25.256;2022-09-16T06:31:29;5.15;;;1.70;;
64982;SDS011;62161;54.688;25.256;2022-09-16T06:33:56;8.63;;;1.52;;
64982;SDS011;62161;54.688;25.256;2022-09-16T06:36:23;6.03;;;1.50;;
64982;SDS011;62161;54.688;25.256;2022-09-16T06:38:53;3.33;;;1.55;;
64982;SDS011;62161;54.688;25.256;2022-09-16T06:41:19;3.90;;;1.45;;
64982;SDS011;62161;54.688;25.256;2022-09-16T06:43:45;6.00;;;1.40;;
64982;SDS011;62161;54.688;25.256;2022-09-16T06:46:13;5.95;;;1.48;;
64982;SDS011;62161;54.688;25.256;2022-09-16T06:48:40;7.47;;;1.58;;
64982;SDS011;62161;54.688;25.256;2022-09-16T06:51:13;3.92;;;1.55;;
64982;SDS011;62161;54.688;25.256;2022-09-16T06:53:42;4.97;;;1.52;;
64982;SDS011;62161;54.688;25.256;2022-09-16T06:56:09;4.50;;;1.40;;
64982;SDS011;62161;54.688;25.256;2022-09-16T06:58:37;5.32;;;1.70;;
64982;SDS011;62161;54.688;25.256;2022-09-16T07:01:07;6.32;;;1.30;;
64982;SDS011;62161;54.688;25.256;2022-09-16T07:03:42;6.90;;;1.88;;
64982;SDS011;62161;54.688;25.256;2022-09-16T07:06:09;9.48;;;1.30;;
64982;SDS011;62161;54.688;25.256;2022-09-16T07:08:36;5.55;;;1.38;;
64982;SDS011;62161;54.688;25.256;2022-09-16T07:13:31;4.07;;;1.23;;
64982;SDS011;62161;54.688;25.256;2022-09-16T07:16:01;6.65;;;1.50;;
64982;SDS011;62161;54.688;25.256;2022-09-16T07:18:31;9.30;;;1.70;;
64982;SDS011;62161;54.688;25.256;2022-09-16T07:21:17;5.10;;;1.52;;
64982;SDS011;62161;54.688;25.256;2022-09-16T07:23:44;6.13;;;1.50;;
64982;SDS011;62161;54.688;25.256;2022-09-16T07:26:11;5.20;;;1.25;;
64982;SDS011;62161;54.688;25.256;2022-09-16T07:28:38;4.63;;;1.30;;
64982;SDS011;62161;54.688;25.256;2022-09-16T07:31:09;3.70;;;1.17;;
64982;SDS011;62161;54.688;25.256;2022-09-16T07:33:40;3.78;;;1.67;;
64982;SDS011;62161;54.688;25.256;2022-09-16T07:36:08;10.43;;;1.73;;
64982;SDS011;62161;54.688;25.256;2022-09-16T07:38:35;5.63;;;1.35;;
64982;SDS011;62161;54.688;25.256;2022-09-16T07:43:31;9.02;;;1.65;;
64982;SDS011;62161;54.688;25.256;2022-09-16T07:45:56;2.92;;;1.30;;
64982;SDS011;62161;54.688;25.256;2022-09-16T07:48:22;2.78;;;1.23;;
64982;SDS011;62161;54.688;25.256;2022-09-16T07:50:55;5.95;;;1.42;;
64982;SDS011;62161;54.688;25.256;2022-09-16T07:53:47;4.45;;;1.17;;
64982;SDS011;62161;54.688;25.256;2022-09-16T07:56:18;4.78;;;1.10;;
64982;SDS011;62161;54.688;25.256;2022-09-16T07:58:46;4.75;;;1.27;;
64982;SDS011;62161;54.688;25.256;2022-09-16T08:01:12;4.95;;;1.20;;
64982;SDS011;62161;54.688;25.256;2022-09-16T08:03:41;2.05;;;1.10;;
64982;SDS011;62161;54.688;25.256;2022-09-16T08:06:10;2.85;;;1.10;;
64982;SDS011;62161;54.688;25.256;2022-09-16T08:08:37;4.47;;;1.63;;
64982;SDS011;62161;54.688;25.256;2022-09-16T08:11:03;4.05;;;1.20;;
64982;SDS011;62161;54.688;25.256;2022-09-16T08:13:30;2.85;;;1.23;;
64982;SDS011;62161;54.688;25.256;2022-09-16T08:16:00;5.43;;;1.38;;
64982;SDS011;62161;54.688;25.256;2022-09-16T08:18:30;4.65;;;1.00;;
64982;SDS011;62161;54.688;25.256;2022-09-16T08:20:56;3.28;;;1.00;;
64982;SDS011;62161;54.688;25.256;2022-09-16T08:23:21;3.30;;;1.10;;
64982;SDS011;62161;54.688;25.256;2022-09-16T08:25:54;5.32;;;1.20;;
64982;SDS011;62161;54.688;25.256;2022-09-16T08:28:20;8.27;;;1.38;;
64982;SDS011;62161;54.688;25.256;2022-09-16T08:30:46;5.88;;;1.52;;
64982;SDS011;62161;54.688;25.256;2022-09-16T08:33:11;6.32;;;1.30;;
64982;SDS011;62161;54.688;25.256;2022-09-16T08:35:37;6.10;;;1.60;;
64982;SDS011;62161;54.688;25.256;2022-09-16T08:38:02;7.85;;;1.40;;
64982;SDS011;62161;54.688;25.256;2022-09-16T08:40:30;7.40;;;1.40;;
64982;SDS011;62161;54.688;25.256;2022-09-16T08:43:07;4.00;;;1.13;;
64982;SDS011;62161;54.688;25.256;2022-09-16T08:48:50;4.43;;;1.10;;
64982;SDS011;62161;54.688;25.256;2022-09-16T08:51:22;8.02;;;1.33;;
64982;SDS011;62161;54.688;25.256;2022-09-16T08:53:53;5.78;;;0.98;;
64982;SDS011;62161;54.688;25.256;2022-09-16T08:56:23;5.35;;;1.38;;
64982;SDS011;62161;54.688;25.256;2022-09-16T08:58:52;6.88;;;1.35;;
64982;SDS011;62161;54.688;25.256;2022-09-16T09:03:48;5.22;;;1.00;;
64982;SDS011;62161;54.688;25.256;2022-09-16T09:06:57;5.15;;;1.40;;
64982;SDS011;62161;54.688;25.256;2022-09-16T09:09:22;4.97;;;1.40;;
64982;SDS011;62161;54.688;25.256;2022-09-16T09:18:10;14.55;;;1.70;;
64982;SDS011;62161;54.688;25.256;2022-09-16T09:23:37;6.20;;;1.20;;
64982;SDS011;62161;54.688;25.256;2022-09-16T09:26:50;7.03;;;1.35;;
64982;SDS011;62161;54.688;25.256;2022-09-16T09:32:05;5.20;;;1.15;;
64982;SDS011;62161;54.688;25.256;2022-09-16T09:34:59;5.70;;;1.17;;
64982;SDS011;62161;54.688;25.256;2022-09-16T09:42:30;5.43;;;1.20;;
64982;SDS011;62161;54.688;25.256;2022-09-16T09:47:38;5.15;;;1.10;;
64982;SDS011;62161;54.688;25.256;2022-09-16T09:50:15;4.55;;;1.05;;
64982;SDS011;62161;54.688;25.256;2022-09-16T09:55:36;3.97;;;1.10;;
64982;SDS011;62161;54.688;25.256;2022-09-16T10:00:58;6.93;;;1.60;;
64982;SDS011;62161;54.688;25.256;2022-09-16T10:03:26;4.22;;;1.00;;
64982;SDS011;62161;54.688;25.256;2022-09-16T10:05:52;6.55;;;1.45;;
64982;SDS011;62161;54.688;25.256;2022-09-16T10:08:40;3.92;;;1.10;;
64982;SDS011;62161;54.688;25.256;2022-09-16T10:13:51;5.47;;;1.08;;
64982;SDS011;62161;54.688;25.256;2022-09-16T10:16:20;6.07;;;1.30;;
64982;SDS011;62161;54.688;25.256;2022-09-16T10:19:33;4.20;;;1.17;;
64982;SDS011;62161;54.688;25.256;2022-09-16T10:21:46;4.75;;;1.20;;
64982;SDS011;62161;54.688;25.256;2022-09-16T10:24:34;5.13;;;1.30;;
64982;SDS011;62161;54.688;25.256;2022-09-16T10:27:02;9.18;;;1.17;;
64982;SDS011;62161;54.688;25.256;2022-09-16T10:29:46;2.97;;;0.98;;
64982;SDS011;62161;54.688;25.256;2022-09-16T10:32:16;4.45;;;1.00;;
64982;SDS011;62161;54.688;25.256;2022-09-16T10:34:43;7.47;;;2.58;;
64982;SDS011;62161;54.688;25.256;2022-09-16T10:39:39;6.30;;;1.38;;
64982;SDS011;62161;54.688;25.256;2022-09-16T10:42:14;4.53;;;1.10;;
64982;SDS011;62161;54.688;25.256;2022-09-16T10:44:49;4.63;;;1.02;;
64982;SDS011;62161;54.688;25.256;2022-09-16T10:47:18;5.13;;;1.20;;
64982;SDS011;62161;54.688;25.256;2022-09-16T10:52:17;7.78;;;1.30;;
64982;SDS011;62161;54.688;25.256;2022-09-16T10:54:45;4.05;;;0.90;;
64982;SDS011;62161;54.688;25.256;2022-09-16T10:57:19;6.40;;;1.02;;
64982;SDS011;62161;54.688;25.256;2022-09-16T11:19:07;4.65;;;1.02;;
64982;SDS011;62161;54.688;25.256;2022-09-16T11:32:09;5.78;;;1.20;;
64982;SDS011;62161;54.688;25.256;2022-09-16T11:35:12;3.80;;;1.10;;
64982;SDS011;62161;54.688;25.256;2022-09-16T11:38:04;6.82;;;1.20;;
64982;SDS011;62161;54.688;25.256;2022-09-16T11:40:44;4.40;;;1.08;;
64982;SDS011;62161;54.688;25.256;2022-09-16T11:46:32;5.22;;;1.00;;
64982;SDS011;62161;54.688;25.256;2022-09-16T11:57:23;5.57;;;0.93;;
64982;SDS011;62161;54.688;25.256;2022-09-16T12:00:14;3.88;;;0.85;;
64982;SDS011;62161;54.688;25.256;2022-09-16T12:13:09;4.57;;;1.08;;
64982;SDS011;62161;54.688;25.256;2022-09-16T12:15:43;6.78;;;1.05;;
64982;SDS011;62161;54.688;25.256;2022-09-16T12:23:55;5.65;;;0.90;;
64982;SDS011;62161;54.688;25.256;2022-09-16T12:26:31;4.93;;;1.17;;
64982;SDS011;62161;54.688;25.256;2022-09-16T12:31:40;4.88;;;1.15;;
64982;SDS011;62161;54.688;25.256;2022-09-16T12:34:22;6.80;;;1.08;;
64982;SDS011;62161;54.688;25.256;2022-09-16T12:36:56;4.13;;;1.00;;
64982;SDS011;62161;54.688;25.256;2022-09-16T12:39:27;3.63;;;0.98;;
64982;SDS011;62161;54.688;25.256;2022-09-16T12:42:11;4.20;;;1.05;;
64982;SDS011;62161;54.688;25.256;2022-09-16T12:50:44;3.90;;;0.95;;
64982;SDS011;62161;54.688;25.256;2022-09-16T12:58:47;5.53;;;1.33;;
64982;SDS011;62161;54.688;25.256;2022-09-16T13:01:57;3.22;;;0.80;;
64982;SDS011;62161;54.688;25.256;2022-09-16T13:04:21;3.60;;;0.98;;
64982;SDS011;62161;54.688;25.256;2022-09-16T13:07:01;3.88;;;1.10;;
64982;SDS011;62161;54.688;25.256;2022-09-16T13:09:27;7.43;;;1.33;;
64982;SDS011;62161;54.688;25.256;2022-09-16T13:11:58;6.75;;;1.13;;
64982;SDS011;62161;54.688;25.256;2022-09-16T13:14:43;6.07;;;0.82;;
64982;SDS011;62161;54.688;25.256;2022-09-16T13:17:09;6.20;;;1.95;;
64982;SDS011;62161;54.688;25.256;2022-09-16T13:19:38;6.68;;;1.13;;
64982;SDS011;62161;54.688;25.256;2022-09-16T13:24:44;3.83;;;1.00;;
64982;SDS011;62161;54.688;25.256;2022-09-16T13:27:35;5.00;;;1.20;;
64982;SDS011;62161;54.688;25.256;2022-09-16T13:30:43;3.33;;;0.90;;
64982;SDS011;62161;54.688;25.256;2022-09-16T13:37:56;4.90;;;1.00;;
64982;SDS011;62161;54.688;25.256;2022-09-16T13:40:24;3.05;;;0.85;;
64982;SDS011;62161;54.688;25.256;2022-09-16T13:45:38;5.90;;;1.00;;
64982;SDS011;62161;54.688;25.256;2022-09-16T13:48:12;6.53;;;0.93;;
64982;SDS011;62161;54.688;25.256;2022-09-16T13:50:42;4.65;;;1.23;;
64982;SDS011;62161;54.688;25.256;2022-09-16T13:53:20;5.85;;;0.80;;
64982;SDS011;62161;54.688;25.256;2022-09-16T13:55:53;3.58;;;0.90;;
64982;SDS011;62161;54.688;25.256;2022-09-16T13:58:28;6.88;;;1.02;;
64982;SDS011;62161;54.688;25.256;2022-09-16T14:11:39;5.45;;;1.10;;
64982;SDS011;62161;54.688;25.256;2022-09-16T14:14:26;5.10;;;0.95;;
64982;SDS011;62161;54.688;25.256;2022-09-16T14:16:52;6.25;;;0.90;;
64982;SDS011;62161;54.688;25.256;2022-09-16T14:19:27;4.90;;;1.10;;
64982;SDS011;62161;54.688;25.256;2022-09-16T14:24:32;2.85;;;0.80;;
64982;SDS011;62161;54.688;25.256;2022-09-16T14:27:00;7.60;;;1.00;;
64982;SDS011;62161;54.688;25.256;2022-09-16T14:29:26;6.07;;;0.98;;
64982;SDS011;62161;54.688;25.256;2022-09-16T14:31:52;3.20;;;0.80;;
64982;SDS011;62161;54.688;25.256;2022-09-16T14:34:27;4.50;;;0.90;;
64982;SDS011;62161;54.688;25.256;2022-09-16T14:36:57;4.93;;;0.75;;
64982;SDS011;62161;54.688;25.256;2022-09-16T14:39:24;4.72;;;0.75;;
64982;SDS011;62161;54.688;25.256;2022-09-16T14:41:52;5.20;;;0.95;;
64982;SDS011;62161;54.688;25.256;2022-09-16T14:49:28;5.22;;;1.00;;
64982;SDS011;62161;54.688;25.256;2022-09-16T14:51:56;2.80;;;0.85;;
64982;SDS011;62161;54.688;25.256;2022-09-16T14:54:23;6.38;;;1.05;;
64982;SDS011;62161;54.688;25.256;2022-09-16T14:56:56;6.45;;;1.00;;
64982;SDS011;62161;54.688;25.256;2022-09-16T15:01:56;6.03;;;1.07;;
64982;SDS011;62161;54.688;25.256;2022-09-16T15:04:27;3.85;;;0.98;;
64982;SDS011;62161;54.688;25.256;2022-09-16T15:07:12;3.28;;;1.10;;
64982;SDS011;62161;54.688;25.256;2022-09-16T15:09:49;3.63;;;0.90;;
64982;SDS011;62161;54.688;25.256;2022-09-16T15:12:38;3.03;;;0.98;;
64982;SDS011;62161;54.688;25.256;2022-09-16T15:15:14;5.88;;;1.05;;
64982;SDS011;62161;54.688;25.256;2022-09-16T15:17:43;2.42;;;0.80;;
64982;SDS011;62161;54.688;25.256;2022-09-16T15:20:22;4.43;;;0.80;;
64982;SDS011;62161;54.688;25.256;2022-09-16T15:22:51;6.32;;;0.82;;
64982;SDS011;62161;54.688;25.256;2022-09-16T15:25:21;3.30;;;0.90;;
64982;SDS011;62161;54.688;25.256;2022-09-16T15:27:49;3.92;;;0.88;;
64982;SDS011;62161;54.688;25.256;2022-09-16T15:30:25;2.33;;;0.75;;
64982;SDS011;62161;54.688;25.256;2022-09-16T15:32:50;3.83;;;0.90;;
64982;SDS011;62161;54.688;25.256;2022-09-16T15:35:25;3.08;;;0.90;;
64982;SDS011;62161;54.688;25.256;2022-09-16T15:37:53;3.28;;;1.00;;
64982;SDS011;62161;54.688;25.256;2022-09-16T15:45:31;8.73;;;1.25;;
64982;SDS011;62161;54.688;25.256;2022-09-16T15:48:04;5.22;;;1.27;;
64982;SDS011;62161;54.688;25.256;2022-09-16T15:50:37;6.35;;;2.33;;
64982;SDS011;62161;54.688;25.256;2022-09-16T15:55:58;5.88;;;1.60;;
64982;SDS011;62161;54.688;25.256;2022-09-16T16:01:00;4.25;;;1.33;;
64982;SDS011;62161;54.688;25.256;2022-09-16T16:06:01;4.68;;;1.50;;
64982;SDS011;62161;54.688;25.256;2022-09-16T16:08:36;3.58;;;1.10;;
64982;SDS011;62161;54.688;25.256;2022-09-16T16:13:59;4.22;;;1.67;;
64982;SDS011;62161;54.688;25.256;2022-09-16T16:16:24;5.47;;;2.03;;
64982;SDS011;62161;54.688;25.256;2022-09-16T16:18:50;5.82;;;3.92;;
64982;SDS011;62161;54.688;25.256;2022-09-16T16:21:15;7.38;;;2.95;;
64982;SDS011;62161;54.688;25.256;2022-09-16T16:23:41;8.23;;;2.63;;
64982;SDS011;62161;54.688;25.256;2022-09-16T16:26:07;6.43;;;1.50;;
64982;SDS011;62161;54.688;25.256;2022-09-16T16:28:34;8.75;;;1.33;;
64982;SDS011;62161;54.688;25.256;2022-09-16T16:31:16;3.70;;;1.35;;
64982;SDS011;62161;54.688;25.256;2022-09-16T16:33:46;4.55;;;1.50;;
64982;SDS011;62161;54.688;25.256;2022-09-16T16:36:13;4.90;;;1.20;;
64982;SDS011;62161;54.688;25.256;2022-09-16T16:38:40;6.35;;;1.60;;
64982;SDS011;62161;54.688;25.256;2022-09-16T16:41:06;7.45;;;2.20;;
64982;SDS011;62161;54.688;25.256;2022-09-16T16:43:32;3.67;;;1.40;;
64982;SDS011;62161;54.688;25.256;2022-09-16T16:45:57;6.88;;;1.33;;
64982;SDS011;62161;54.688;25.256;2022-09-16T16:48:25;6.88;;;1.45;;
64982;SDS011;62161;54.688;25.256;2022-09-16T16:50:58;5.90;;;1.10;;
64982;SDS011;62161;54.688;25.256;2022-09-16T16:53:25;7.32;;;1.33;;
64982;SDS011;62161;54.688;25.256;2022-09-16T16:55:51;4.55;;;1.10;;
64982;SDS011;62161;54.688;25.256;2022-09-16T16:58:16;5.50;;;1.20;;
64982;SDS011;62161;54.688;25.256;2022-09-16T17:00:42;5.03;;;1.15;;
64982;SDS011;62161;54.688;25.256;2022-09-16T17:03:07;7.43;;;1.33;;
64982;SDS011;62161;54.688;25.256;2022-09-16T17:05:32;4.75;;;0.90;;
64982;SDS011;62161;54.688;25.256;2022-09-16T17:07:58;4.78;;;0.90;;
64982;SDS011;62161;54.688;25.256;2022-09-16T17:10:23;3.92;;;1.10;;
64982;SDS011;62161;54.688;25.256;2022-09-16T17:12:49;4.35;;;1.20;;
64982;SDS011;62161;54.688;25.256;2022-09-16T17:15:14;3.15;;;1.08;;
64982;SDS011;62161;54.688;25.256;2022-09-16T17:17:40;7.22;;;1.13;;
64982;SDS011;62161;54.688;25.256;2022-09-16T17:20:05;3.47;;;1.00;;
64982;SDS011;62161;54.688;25.256;2022-09-16T17:22:31;8.25;;;1.80;;
64982;SDS011;62161;54.688;25.256;2022-09-16T17:24:57;4.55;;;1.20;;
64982;SDS011;62161;54.688;25.256;2022-09-16T17:27:22;5.20;;;1.40;;
64982;SDS011;62161;54.688;25.256;2022-09-16T17:29:50;4.30;;;1.40;;
64982;SDS011;62161;54.688;25.256;2022-09-16T17:32:16;5.45;;;1.58;;
64982;SDS011;62161;54.688;25.256;2022-09-16T17:34:42;9.80;;;1.83;;
64982;SDS011;62161;54.688;25.256;2022-09-16T17:37:07;5.55;;;1.55;;
64982;SDS011;62161;54.688;25.256;2022-09-16T17:39:32;6.90;;;1.80;;
64982;SDS011;62161;54.688;25.256;2022-09-16T17:41:59;6.80;;;1.65;;
64982;SDS011;62161;54.688;25.256;2022-09-16T17:44:24;3.30;;;1.42;;
64982;SDS011;62161;54.688;25.256;2022-09-16T17:46:51;4.18;;;1.40;;
64982;SDS011;62161;54.688;25.256;2022-09-16T17:49:20;4.47;;;1.40;;
64982;SDS011;62161;54.688;25.256;2022-09-16T17:51:47;4.20;;;1.20;;
64982;SDS011;62161;54.688;25.256;2022-09-16T17:54:13;6.45;;;1.38;;
64982;SDS011;62161;54.688;25.256;2022-09-16T17:56:39;3.60;;;1.30;;
64982;SDS011;62161;54.688;25.256;2022-09-16T17:59:06;4.25;;;1.10;;
64982;SDS011;62161;54.688;25.256;2022-09-16T18:01:32;4.18;;;1.20;;
64982;SDS011;62161;54.688;25.256;2022-09-16T18:03:59;7.55;;;1.33;;
64982;SDS011;62161;54.688;25.256;2022-09-16T18:06:33;8.38;;;1.50;;
64982;SDS011;62161;54.688;25.256;2022-09-16T18:09:04;10.45;;;1.50;;
64982;SDS011;62161;54.688;25.256;2022-09-16T18:11:31;7.40;;;1.63;;
64982;SDS011;62161;54.688;25.256;2022-09-16T18:13:58;4.00;;;1.25;;
64982;SDS011;62161;54.688;25.256;2022-09-16T18:16:25;4.03;;;1.40;;
64982;SDS011;62161;54.688;25.256;2022-09-16T18:18:52;5.55;;;1.33;;